Time;durP1;ratioP1;P1;durP2;ratioP2;P2;SDS_P1;SDS_P2;PMS_P1;PMS_P2;Temp;Humidity;BMP_temperature;BMP_pressure;BME280_temperature;BME280_humidity;BME280_pressure;Samples;Min_cycle;Max_cycle;Signal;HPM_P1;HPM_P2
2024/04/12 00:01:16;;;;;;;10.15;4.82;;;;;;;8.66;100.00;98939.56;5497693;26;20675;-80
2024/04/12 00:03:43;;;;;;;13.52;4.82;;;;;;;8.62;100.00;98933.06;5501427;26;20327;-80
2024/04/12 00:06:17;;;;;;;12.05;4.68;;;;;;;8.54;100.00;98928.78;5497530;26;20371;-80
2024/04/12 00:08:46;;;;;;;10.25;4.65;;;;;;;8.53;100.00;98938.53;5497432;26;21114;-80
2024/04/12 00:11:13;;;;;;;13.05;4.97;;;;;;;8.46;100.00;98932.44;5497199;26;20314;-80
2024/04/12 00:13:42;;;;;;;9.65;4.05;;;;;;;8.47;100.00;98934.06;5497445;26;20355;-80
2024/04/12 00:16:09;;;;;;;10.38;4.47;;;;;;;8.44;100.00;98926.53;5497714;26;20326;-80
2024/04/12 00:18:38;;;;;;;15.63;5.28;;;;;;;8.45;100.00;98927.34;5498428;26;20367;-80
2024/04/12 00:21:05;;;;;;;14.80;4.85;;;;;;;8.39;100.00;98931.59;5501169;26;20314;-80
2024/04/12 00:23:32;;;;;;;10.13;4.55;;;;;;;8.31;100.00;98928.31;5501515;26;20391;-79
2024/04/12 00:26:02;;;;;;;10.85;4.50;;;;;;;8.28;100.00;98924.22;5501372;26;20323;-80
2024/04/12 00:28:31;;;;;;;11.00;4.60;;;;;;;8.26;100.00;98925.44;5501065;26;20708;-80
2024/04/12 00:31:01;;;;;;;11.93;4.32;;;;;;;8.31;100.00;98923.06;5501932;26;20702;-80
2024/04/12 00:33:34;;;;;;;11.88;4.57;;;;;;;8.34;100.00;98923.47;5501302;26;20408;-80
2024/04/12 00:36:08;;;;;;;10.25;4.82;;;;;;;8.30;100.00;98929.31;5501204;26;20355;-80
2024/04/12 00:38:38;;;;;;;15.18;4.38;;;;;;;8.26;100.00;98920.19;5501157;26;20356;-80
2024/04/12 00:41:14;;;;;;;12.80;4.65;;;;;;;8.26;100.00;98912.25;5500859;26;20330;-80
2024/04/12 00:43:49;;;;;;;14.80;5.13;;;;;;;8.30;100.00;98909.00;5501137;26;20318;-80
2024/04/12 00:46:18;;;;;;;14.10;5.20;;;;;;;8.23;100.00;98910.81;5501548;26;20397;-80
2024/04/12 00:48:45;;;;;;;10.27;4.68;;;;;;;8.17;100.00;98911.63;5502592;26;20355;-80
2024/04/12 00:51:17;;;;;;;10.20;4.30;;;;;;;8.15;100.00;98911.81;5503538;26;20331;-80
2024/04/12 00:53:45;;;;;;;7.25;4.10;;;;;;;8.17;100.00;98908.97;5503169;26;20370;-80
2024/04/12 00:56:13;;;;;;;11.18;4.60;;;;;;;8.16;100.00;98912.63;5514051;26;20307;-81
2024/04/12 00:58:41;;;;;;;13.48;5.25;;;;;;;8.17;100.00;98906.34;5513358;26;20347;-81
2024/04/12 01:01:15;;;;;;;11.70;4.65;;;;;;;8.16;100.00;98907.34;5505581;26;21112;-80
2024/04/12 01:03:46;;;;;;;8.07;4.32;;;;;;;8.08;100.00;98916.25;5500500;26;20378;-81
2024/04/12 01:06:17;;;;;;;12.70;4.50;;;;;;;8.01;100.00;98915.41;5501032;26;20380;-80
2024/04/12 01:08:46;;;;;;;12.20;4.38;;;;;;;8.04;100.00;98912.38;5501049;26;20449;-80
2024/04/12 01:11:13;;;;;;;14.45;4.97;;;;;;;8.03;100.00;98915.22;5501561;26;20326;-80
2024/04/12 01:13:40;;;;;;;12.63;5.32;;;;;;;8.02;100.00;98916.22;5501205;26;20855;-80
2024/04/12 01:16:07;;;;;;;11.45;5.20;;;;;;;8.00;100.00;98919.06;5500990;26;20318;-80
2024/04/12 01:18:33;;;;;;;10.70;4.90;;;;;;;7.94;100.00;98913.75;5501275;26;20358;-80
2024/04/12 01:21:00;;;;;;;10.65;4.88;;;;;;;7.89;100.00;98917.00;5500817;26;20942;-80
2024/04/12 01:23:30;;;;;;;10.03;4.63;;;;;;;7.94;100.00;98917.22;5501068;26;20319;-80
2024/04/12 01:25:59;;;;;;;8.00;4.53;;;;;;;7.92;100.00;98907.88;5501159;26;20322;-80
2024/04/12 01:28:27;;;;;;;10.27;4.80;;;;;;;7.94;100.00;98914.56;5499934;26;20356;-80
2024/04/12 01:30:59;;;;;;;9.30;4.60;;;;;;;7.97;100.00;98908.09;5499648;26;20334;-80
2024/04/12 01:33:26;;;;;;;10.30;4.67;;;;;;;7.94;100.00;98919.84;5500728;26;20371;-80
2024/04/12 01:35:53;;;;;;;11.80;4.20;;;;;;;7.92;100.00;98908.69;5500898;26;20326;-80
2024/04/12 01:38:21;;;;;;;8.73;4.43;;;;;;;7.92;100.00;98908.69;5500174;26;20385;-79
2024/04/12 01:40:56;;;;;;;11.68;4.40;;;;;;;7.84;100.00;98916.75;5500935;26;20382;-80
2024/04/12 01:43:26;;;;;;;7.93;4.75;;;;;;;7.76;100.00;98919.53;5500171;26;20330;-80
2024/04/12 01:45:54;;;;;;;7.23;4.07;;;;;;;7.70;100.00;98913.25;5499420;26;20397;-80
2024/04/12 01:48:22;;;;;;;6.95;4.00;;;;;;;7.67;100.00;98918.88;5500169;26;20372;-80
2024/04/12 01:50:51;;;;;;;8.73;4.35;;;;;;;7.62;100.00;98923.94;5499521;26;20326;-80
2024/04/12 01:53:21;;;;;;;9.75;3.80;;;;;;;7.63;100.00;98930.03;5499866;26;20358;-80
2024/04/12 01:55:50;;;;;;;7.00;3.78;;;;;;;7.62;100.00;98923.13;5500028;26;20338;-80
2024/04/12 01:58:19;;;;;;;12.13;4.30;;;;;;;7.56;100.00;98927.34;5499908;26;20330;-80
2024/04/12 02:00:49;;;;;;;7.60;3.95;;;;;;;7.56;100.00;98926.53;5499545;26;20326;-80
2024/04/12 02:03:15;;;;;;;10.80;4.32;;;;;;;7.55;100.00;98920.44;5499942;26;20423;-80
2024/04/12 02:05:41;;;;;;;11.13;4.72;;;;;;;7.56;100.00;98926.53;5499427;26;20359;-80
2024/04/12 02:08:08;;;;;;;10.55;4.30;;;;;;;7.56;100.00;98927.34;5499715;26;20335;-80
2024/04/12 02:10:34;;;;;;;9.20;4.40;;;;;;;7.54;100.00;98932.00;5500036;26;20339;-80
2024/04/12 02:13:00;;;;;;;7.65;4.60;;;;;;;7.47;100.00;98936.41;5500659;26;20323;-80
2024/04/12 02:15:27;;;;;;;8.20;4.07;;;;;;;7.46;100.00;98931.34;5503133;26;20401;-80
2024/04/12 02:17:59;;;;;;;12.57;4.70;;;;;;;7.42;100.00;98927.47;5500148;26;20327;-80
2024/04/12 02:20:33;;;;;;;8.50;4.32;;;;;;;7.39;100.00;98931.28;5500497;26;20703;-80
2024/04/12 02:23:00;;;;;;;11.70;4.72;;;;;;;7.43;100.00;98929.09;5499731;26;20331;-80
2024/04/12 02:25:27;;;;;;;11.25;4.82;;;;;;;7.39;100.00;98926.03;5499183;26;20330;-80
2024/04/12 02:27:55;;;;;;;9.93;4.60;;;;;;;7.34;100.00;98926.63;5498946;26;20375;-80
2024/04/12 02:30:23;;;;;;;8.02;4.40;;;;;;;7.31;100.00;98923.53;5500044;26;20382;-80
2024/04/12 02:32:50;;;;;;;5.93;3.83;;;;;;;7.24;100.00;98928.75;5499918;26;20421;-80
2024/04/12 02:35:21;;;;;;;6.60;3.83;;;;;;;7.24;100.00;98927.94;5498441;26;20405;-80
2024/04/12 02:37:48;;;;;;;7.95;4.50;;;;;;;7.16;100.00;98926.25;5499009;26;20428;-80
2024/04/12 02:40:15;;;;;;;9.57;4.03;;;;;;;7.14;100.00;98928.25;5498791;26;20717;-80
2024/04/12 02:42:44;;;;;;;8.40;4.68;;;;;;;7.08;100.00;98930.84;5498847;26;20419;-80
2024/04/12 02:45:12;;;;;;;9.00;4.47;;;;;;;7.12;100.00;98932.13;5499183;26;20326;-79
2024/04/12 02:47:39;;;;;;;10.83;5.20;;;;;;;7.13;100.00;98917.94;5494885;26;20817;-80
2024/04/12 02:50:09;;;;;;;17.17;5.75;;;;;;;6.99;100.00;98923.09;5492964;26;20493;-80
2024/04/12 02:52:40;;;;;;;12.48;4.53;;;;;;;6.95;100.00;98926.31;5492997;26;20384;-80
2024/04/12 02:55:12;;;;;;;17.13;5.50;;;;;;;6.88;100.00;98922.81;5493430;26;20315;-80
2024/04/12 02:57:41;;;;;;;9.43;4.97;;;;;;;6.86;100.00;98928.25;5493184;26;20424;-80
2024/04/12 03:00:21;;;;;;;8.18;4.55;;;;;;;6.87;100.00;98923.81;5493135;26;20718;-80
2024/04/12 03:02:48;;;;;;;8.20;4.85;;;;;;;6.89;100.00;98925.25;5492748;26;20338;-80
2024/04/12 03:05:15;;;;;;;11.27;4.60;;;;;;;6.87;100.00;98923.81;5492463;26;20377;-80
2024/04/12 03:07:47;;;;;;;12.07;4.90;;;;;;;6.82;100.00;98928.84;5493070;26;20370;-80
2024/04/12 03:10:18;;;;;;;11.07;4.88;;;;;;;6.85;100.00;98917.91;5491684;26;20367;-80
2024/04/12 03:12:45;;;;;;;11.75;4.47;;;;;;;6.87;100.00;98918.53;5492298;26;20326;-80
2024/04/12 03:15:11;;;;;;;13.93;4.57;;;;;;;6.87;100.00;98915.91;5492521;26;21014;-80
2024/04/12 03:17:38;;;;;;;17.47;5.40;;;;;;;6.89;100.00;98916.53;5491434;26;20359;-80
2024/04/12 03:20:05;;;;;;;9.33;4.80;;;;;;;6.81;100.00;98912.22;5491679;26;20835;-80
2024/04/12 03:22:32;;;;;;;11.15;4.63;;;;;;;6.77;100.00;98918.03;5494126;26;20390;-81
2024/04/12 03:25:00;;;;;;;8.45;4.30;;;;;;;6.79;100.00;98914.22;5492329;26;20331;-80
2024/04/12 03:27:27;;;;;;;8.37;4.33;;;;;;;6.73;100.00;98908.91;5493784;26;20318;-80
2024/04/12 03:29:53;;;;;;;13.07;5.20;;;;;;;6.75;100.00;98915.63;5492027;26;20774;-80
2024/04/12 03:32:19;;;;;;;13.30;5.22;;;;;;;6.69;100.00;98908.44;5491375;26;20342;-80
2024/04/12 03:34:49;;;;;;;9.40;5.40;;;;;;;6.65;100.00;98906.41;5491913;26;20366;-80
2024/04/12 03:37:36;;;;;;;12.25;5.45;;;;;;;6.66;100.00;98913.28;5491005;26;20322;-80
2024/04/12 03:40:18;;;;;;;10.30;5.15;;;;;;;6.63;100.00;98918.91;5491199;26;20358;-80
2024/04/12 03:42:44;;;;;;;8.95;4.88;;;;;;;6.60;100.00;98913.06;5492591;26;20867;-81
2024/04/12 03:45:14;;;;;;;13.20;5.53;;;;;;;6.66;100.00;98919.38;5491339;26;20386;-80
2024/04/12 03:47:41;;;;;;;10.27;5.50;;;;;;;6.58;100.00;98922.13;5491607;26;20397;-80
2024/04/12 03:50:13;;;;;;;16.55;5.65;;;;;;;6.56;100.00;98919.69;5491815;26;20322;-81
2024/04/12 03:52:41;;;;;;;13.77;5.75;;;;;;;6.58;100.00;98922.94;5491771;26;20327;-81
2024/04/12 03:55:10;;;;;;;12.73;5.63;;;;;;;6.57;100.00;98923.94;5491239;26;20331;-80
2024/04/12 03:57:39;;;;;;;10.93;5.32;;;;;;;6.50;100.00;98923.06;5490314;26;20326;-81
2024/04/12 04:00:11;;;;;;;9.33;4.93;;;;;;;6.50;100.00;98920.44;5490370;26;20334;-81
2024/04/12 04:02:41;;;;;;;10.55;4.80;;;;;;;6.51;100.00;98932.59;5490955;26;20331;-81
2024/04/12 04:05:14;;;;;;;10.57;5.15;;;;;;;6.48;100.00;98925.06;5490286;26;20350;-82
2024/04/12 04:07:41;;;;;;;9.60;5.22;;;;;;;6.52;100.00;98925.50;5492834;26;20436;-82
2024/04/12 04:10:14;;;;;;;11.38;5.43;;;;;;;6.47;100.00;98927.88;5492420;26;20326;-81
2024/04/12 04:12:45;;;;;;;10.77;5.30;;;;;;;6.40;100.00;98933.06;5492086;26;20427;-75
2024/04/12 04:15:11;;;;;;;13.25;5.40;;;;;;;6.44;100.00;98925.63;5491260;26;20326;-80
2024/04/12 04:17:37;;;;;;;15.95;5.40;;;;;;;6.43;100.00;98926.63;5491411;26;20354;-81
2024/04/12 04:20:06;;;;;;;12.47;5.30;;;;;;;6.37;100.00;98924.75;5491786;26;20370;-80
2024/04/12 04:25:07;;;;;;;10.15;5.03;;;;;;;6.31;100.00;98925.50;5492469;26;20330;-81
2024/04/12 04:27:37;;;;;;;9.55;5.00;;;;;;;6.33;100.00;98926.09;5460953;26;20353;-79
2024/04/12 04:30:05;;;;;;;10.68;5.07;;;;;;;6.30;100.00;98923.88;5486775;26;21084;-78
2024/04/12 04:32:31;;;;;;;9.50;5.38;;;;;;;6.26;100.00;98919.97;5487148;26;20688;-79
2024/04/12 04:35:09;;;;;;;10.23;5.35;;;;;;;6.28;100.00;98917.97;5494522;26;20354;-80
2024/04/12 04:37:37;;;;;;;17.42;5.80;;;;;;;6.27;100.00;98917.16;5506361;26;20348;-81
2024/04/12 04:40:11;;;;;;;8.52;4.97;;;;;;;6.28;100.00;98924.03;5506158;26;20402;-81
2024/04/12 04:42:43;;;;;;;12.35;5.93;;;;;;;6.26;100.00;98925.22;5497862;26;20365;-81
2024/04/12 04:45:09;;;;;;;10.45;5.20;;;;;;;6.25;100.00;98916.50;5492277;26;20361;-81
2024/04/12 04:47:36;;;;;;;9.25;4.50;;;;;;;6.29;100.00;98909.09;5493854;26;20326;-82
2024/04/12 04:50:03;;;;;;;12.32;4.78;;;;;;;6.31;100.00;98912.34;5495101;26;20334;-83
2024/04/12 04:52:36;;;;;;;13.75;5.90;;;;;;;6.28;100.00;98908.25;5498386;26;20374;-82
2024/04/12 04:55:06;;;;;;;11.88;5.20;;;;;;;6.31;100.00;98907.09;5496612;26;20371;-82
2024/04/12 04:57:35;;;;;;;9.20;4.95;;;;;;;6.34;100.00;98919.84;5491765;26;20687;-81
2024/04/12 05:00:08;;;;;;;11.48;5.00;;;;;;;6.37;100.00;98917.66;5488076;26;20346;-81
2024/04/12 05:02:34;;;;;;;10.10;4.72;;;;;;;6.40;100.00;98917.28;5491829;26;20327;-80
2024/04/12 05:05:04;;;;;;;10.43;4.72;;;;;;;6.45;100.00;98912.28;5493670;26;20331;-78
2024/04/12 05:07:34;;;;;;;16.27;5.95;;;;;;;6.47;100.00;98904.19;5492920;26;20326;-82
2024/04/12 05:10:08;;;;;;;12.93;5.70;;;;;;;6.50;100.00;98909.09;5481522;26;20418;-82
2024/04/12 05:12:35;;;;;;;12.60;5.45;;;;;;;6.50;100.00;98922.25;5483297;26;20363;-83
2024/04/12 05:15:10;;;;;;;10.55;4.85;;;;;;;6.49;100.00;98921.44;5494627;26;20335;-80
2024/04/12 05:17:37;;;;;;;7.43;4.13;;;;;;;6.53;100.00;98935.03;5459380;26;20340;-80
2024/04/12 05:20:14;;;;;;;11.70;5.70;;;;;;;6.55;100.00;98922.50;5465756;26;20325;-81
2024/04/12 05:22:41;;;;;;;12.95;5.35;;;;;;;6.58;100.00;98927.38;5459342;26;20373;-82
2024/04/12 05:25:13;;;;;;;15.17;6.07;;;;;;;6.59;100.00;98926.38;5458406;26;20396;-82
2024/04/12 05:27:40;;;;;;;11.48;5.40;;;;;;;6.57;100.00;98923.13;5458591;26;20329;-80
2024/04/12 05:30:09;;;;;;;12.93;5.45;;;;;;;6.57;100.00;98931.84;5458387;26;20785;-81
2024/04/12 05:32:36;;;;;;;12.80;6.00;;;;;;;6.58;100.00;98925.56;5481066;26;20330;-81
2024/04/12 05:35:06;;;;;;;11.45;5.65;;;;;;;6.67;100.00;98935.97;5495024;26;20334;-82
2024/04/12 05:37:35;;;;;;;11.65;5.18;;;;;;;6.72;100.00;98931.78;5494708;26;20354;-82
2024/04/12 05:40:04;;;;;;;10.40;4.88;;;;;;;6.80;100.00;98933.47;5494157;26;20342;-81
2024/04/12 05:42:30;;;;;;;8.52;4.47;;;;;;;6.89;100.00;98932.34;5493932;26;20326;-82
2024/04/12 05:45:04;;;;;;;7.43;4.20;;;;;;;6.97;100.00;98932.19;5494776;26;20338;-81
2024/04/12 05:47:34;;;;;;;6.65;4.30;;;;;;;7.09;100.00;98945.66;5495828;26;20383;-80
2024/04/12 05:50:01;;;;;;;7.30;3.90;;;;;;;7.17;100.00;98940.25;5494053;26;20911;-82
2024/04/12 05:52:29;;;;;;;6.55;4.00;;;;;;;7.27;100.00;98930.22;5493982;26;20341;-81
2024/04/12 05:54:55;;;;;;;6.43;3.67;;;;;;;7.36;100.00;98931.69;5489918;26;20330;-80
2024/04/12 05:57:23;;;;;;;8.07;4.40;;;;;;;7.43;100.00;98935.19;5493251;26;20322;-80
2024/04/12 05:59:50;;;;;;;6.88;3.72;;;;;;;7.52;100.00;98939.28;5494152;26;20330;-81
2024/04/12 06:02:17;;;;;;;8.25;3.45;;;;;;;7.62;100.00;98944.22;5494037;26;20371;-81
2024/04/12 06:04:47;;;;;;;4.93;3.33;;;;;;;7.71;100.00;98945.69;5493762;26;20358;-81
2024/04/12 06:07:13;;;;;;;5.45;3.97;;;;;;;7.78;100.00;98941.25;5495470;26;20347;-80
2024/04/12 06:09:40;;;;;;;7.75;4.22;;;;;;;7.81;100.00;98946.16;5493739;26;20359;-80
2024/04/12 06:12:07;;;;;;;6.78;3.60;;;;;;;7.84;100.00;98950.22;5493475;26;20322;-80
2024/04/12 06:14:42;;;;;;;6.25;3.45;;;;;;;7.87;100.00;98953.28;5493892;26;20374;-80
2024/04/12 06:17:11;;;;;;;7.45;4.25;;;;;;;7.93;100.00;98952.50;5492156;26;20437;-81
2024/04/12 06:19:38;;;;;;;4.75;3.35;;;;;;;7.99;100.00;98958.81;5493193;26;20346;-81
2024/04/12 06:22:13;;;;;;;4.95;3.53;;;;;;;8.05;100.00;98972.00;5493030;26;20358;-77
2024/04/12 06:24:40;;;;;;;4.97;3.20;;;;;;;8.11;100.00;98968.63;5493605;26;20846;-80
2024/04/12 06:27:06;;;;;;;5.63;3.60;;;;;;;8.18;100.00;98960.72;5492922;26;20322;-81
2024/04/12 06:29:34;;;;;;;5.45;3.58;;;;;;;8.24;100.00;98959.13;5493000;26;20342;-80
2024/04/12 06:32:00;;;;;;;5.93;2.90;;;;;;;8.32;100.00;98961.63;5493590;26;20315;-79
2024/04/12 06:34:27;;;;;;;3.75;2.72;;;;;;;8.38;100.00;98969.56;5493345;26;20350;-79
2024/04/12 06:36:56;;;;;;;3.63;2.70;;;;;;;8.44;100.00;98974.03;5494031;26;20334;-80
2024/04/12 06:39:26;;;;;;;6.07;3.40;;;;;;;8.49;100.00;98976.09;5495436;26;20330;-78
2024/04/12 06:41:53;;;;;;;5.82;3.35;;;;;;;8.54;100.00;98971.84;5492343;26;20307;-79
2024/04/12 06:44:19;;;;;;;4.63;2.90;;;;;;;8.64;100.00;98982.03;5496747;26;20334;-80
2024/04/12 06:46:49;;;;;;;4.07;3.20;;;;;;;8.72;100.00;98976.53;5495550;26;20330;-80
2024/04/12 06:49:15;;;;;;;6.20;3.50;;;;;;;8.82;100.00;98984.88;5498643;26;20977;-80
2024/04/12 06:54:35;;;;;;;13.95;4.38;;;;;;;9.01;100.00;98977.22;5462055;26;20402;-80
2024/04/12 06:57:04;;;;;;;6.10;3.72;;;;;;;9.18;100.00;98983.72;5460873;26;20317;-79
2024/04/12 06:59:35;;;;;;;5.53;3.50;;;;;;;9.31;100.00;98973.16;5461778;26;20400;-80
2024/04/12 07:02:03;;;;;;;4.53;3.07;;;;;;;9.41;100.00;98978.00;5461363;26;20517;-79
2024/04/12 07:04:30;;;;;;;3.50;2.30;;;;;;;9.51;100.00;98979.25;5461347;26;20337;-79
2024/04/12 07:06:59;;;;;;;7.90;3.38;;;;;;;9.59;100.00;98971.09;5479154;26;20439;-80
2024/04/12 07:09:26;;;;;;;7.70;3.10;;;;;;;9.67;100.00;98976.16;5494493;26;20334;-78
2024/04/12 07:11:55;;;;;;;7.30;3.13;;;;;;;9.77;100.00;98969.66;5495627;26;20326;-79
2024/04/12 07:14:22;;;;;;;4.20;3.17;;;;;;;9.90;100.00;98964.31;5493614;26;20326;-79
2024/04/12 07:16:48;;;;;;;6.25;3.00;;;;;;;10.03;100.00;98964.28;5491256;26;20362;-80
2024/04/12 07:19:18;;;;;;;3.65;2.10;;;;;;;10.17;100.00;98965.88;5492356;26;20330;-79
2024/04/12 07:21:44;;;;;;;3.75;2.40;;;;;;;10.34;100.00;98967.03;5491184;26;20799;-81
2024/04/12 07:24:15;;;;;;;4.45;2.22;;;;;;;10.48;100.00;98963.31;5491934;26;20327;-79
2024/04/12 07:26:42;;;;;;;4.53;2.63;;;;;;;10.64;100.00;98964.66;5491558;26;20330;-78
2024/04/12 07:29:11;;;;;;;3.60;2.80;;;;;;;10.77;100.00;98961.91;5490710;26;20330;-79
2024/04/12 07:31:38;;;;;;;3.50;2.40;;;;;;;10.93;100.00;98971.19;5492007;26;20322;-78
2024/04/12 07:34:05;;;;;;;2.85;2.10;;;;;;;11.10;100.00;98977.59;5491770;26;20362;-79
2024/04/12 07:36:32;;;;;;;3.53;2.20;;;;;;;11.26;100.00;98989.50;5491998;26;20357;-78
2024/04/12 07:39:01;;;;;;;2.25;1.90;;;;;;;11.42;100.00;98985.50;5491994;26;20330;-78
2024/04/12 07:41:27;;;;;;;2.83;2.00;;;;;;;11.55;100.00;98988.03;5491847;26;20334;-79
2024/04/12 07:43:55;;;;;;;4.07;2.30;;;;;;;11.70;100.00;98980.53;5491847;26;20375;-79
2024/04/12 07:46:27;;;;;;;3.15;2.47;;;;;;;11.85;100.00;98981.03;5491540;26;20516;-78
2024/04/12 07:48:57;;;;;;;2.65;2.22;;;;;;;11.98;100.00;98977.44;5489096;26;22836;-77
2024/04/12 07:51:28;;;;;;;4.07;2.05;;;;;;;12.13;100.00;98980.53;5488263;26;20326;-77
2024/04/12 07:53:54;;;;;;;3.00;2.15;;;;;;;12.28;100.00;98983.63;5488264;26;20872;-77
2024/04/12 07:56:21;;;;;;;2.30;1.80;;;;;;;12.40;100.00;98962.44;5491607;26;20671;-80
2024/04/12 07:59:10;;;;;;;5.65;2.08;;;;;;;12.53;100.00;98972.91;5493289;26;20367;-80
2024/04/12 08:01:37;;;;;;;3.53;2.20;;;;;;;12.70;100.00;98975.75;5494062;26;20729;-80
2024/04/12 08:04:15;;;;;;;4.40;3.17;;;;;;;12.86;100.00;98968.94;5493934;26;20337;-79
2024/04/12 08:09:21;;;;;;;3.92;2.80;;;;;;;13.07;100.00;98952.50;5492799;26;20339;-79
2024/04/12 08:11:59;;;;;;;4.15;2.53;;;;;;;13.21;100.00;98953.94;5491472;26;20331;-77
2024/04/12 08:14:26;;;;;;;4.50;2.58;;;;;;;13.34;100.00;98959.03;5493636;26;20358;-80
2024/04/12 08:16:56;;;;;;;6.05;3.65;;;;;;;13.52;100.00;98950.97;5504058;26;20335;-79
2024/04/12 08:19:22;;;;;;;7.00;3.22;;;;;;;13.59;100.00;98948.19;5512367;26;20343;-79
2024/04/12 08:21:50;;;;;;;5.35;3.08;;;;;;;13.66;100.00;98943.53;5506790;26;20346;-80
2024/04/12 08:24:22;;;;;;;4.45;2.92;;;;;;;13.72;100.00;98939.13;5491794;26;20326;-78
2024/04/12 08:26:50;;;;;;;7.10;3.60;;;;;;;13.85;100.00;98939.69;5492167;26;20330;-80
2024/04/12 08:29:23;;;;;;;8.52;3.13;;;;;;;13.95;100.00;98947.09;5492627;26;20680;-79
2024/04/12 08:31:50;;;;;;;6.28;3.08;;;;;;;14.03;100.00;98951.25;5491627;26;20761;-80
2024/04/12 08:34:20;;;;;;;5.80;3.17;;;;;;;14.15;100.00;98955.50;5492758;26;20418;-80
2024/04/12 08:36:49;;;;;;;3.25;2.40;;;;;;;14.28;100.00;98955.22;5493205;26;20420;-80
2024/04/12 08:39:26;;;;;;;7.57;3.35;;;;;;;14.46;100.00;98946.28;5492288;26;20345;-80
2024/04/12 08:41:59;;;;;;;4.80;3.35;;;;;;;14.56;100.00;98957.13;5495652;26;20322;-80
2024/04/12 08:44:26;;;;;;;7.25;3.58;;;;;;;14.71;100.00;98953.94;5495251;26;20414;-80
2024/04/12 08:46:53;;;;;;;5.70;3.25;;;;;;;14.81;100.00;98948.78;5494114;26;20330;-79
2024/04/12 08:49:24;;;;;;;5.30;2.97;;;;;;;15.00;100.00;98949.38;5497774;26;20318;-79
2024/04/12 08:51:58;;;;;;;6.88;3.17;;;;;;;15.16;100.00;98945.09;5494194;26;20367;-79
2024/04/12 08:54:26;;;;;;;4.72;2.67;;;;;;;15.39;100.00;98943.09;5494365;26;20330;-80
2024/04/12 08:56:53;;;;;;;5.03;2.92;;;;;;;15.61;100.00;98948.50;5494639;26;20359;-78
2024/04/12 08:59:26;;;;;;;3.97;2.60;;;;;;;15.87;100.00;98947.78;5494225;26;20327;-80
2024/04/12 09:01:55;;;;;;;5.68;2.42;;;;;;;16.19;100.00;98955.97;5495165;26;20330;-79
2024/04/12 09:04:26;;;;;;;5.13;2.53;;;;;;;16.54;100.00;98952.88;5495718;26;20330;-80
2024/04/12 09:06:53;;;;;;;4.25;2.33;;;;;;;16.91;100.00;98954.91;5494277;26;20358;-80
2024/04/12 09:09:19;;;;;;;3.80;2.15;;;;;;;17.26;100.00;98955.22;5494014;26;20366;-79
2024/04/12 09:11:46;;;;;;;3.10;2.03;;;;;;;17.67;100.00;98952.84;5495037;26;20338;-80
2024/04/12 09:14:20;;;;;;;2.72;1.90;;;;;;;18.07;100.00;98944.22;5494404;26;20330;-79
2024/04/12 09:16:48;;;;;;;6.03;2.15;;;;;;;18.51;100.00;98933.91;5496210;26;20370;-80
2024/04/12 09:19:15;;;;;;;5.10;2.20;;;;;;;18.91;100.00;98936.72;5494173;26;20342;-79
2024/04/12 09:21:47;;;;;;;6.95;3.10;;;;;;;19.28;100.00;98919.53;5494630;26;20358;-80
2024/04/12 09:24:21;;;;;;;4.35;2.13;;;;;;;19.60;100.00;98922.75;5494416;26;20323;-78
2024/04/12 09:26:58;;;;;;;4.53;2.20;;;;;;;19.97;100.00;98913.50;5494550;26;20440;-79
2024/04/12 09:29:28;;;;;;;4.30;1.87;;;;;;;20.34;100.00;98911.22;5490311;26;20896;-78
2024/04/12 09:34:42;;;;;;;3.65;1.80;;;;;;;21.02;100.00;98911.31;5490772;26;20412;-80
2024/04/12 09:37:38;;;;;;;2.42;1.80;;;;;;;21.30;100.00;98912.44;5494004;26;20326;-78
2024/04/12 09:42:45;;;;;;;6.97;2.00;;;;;;;21.83;100.00;98909.75;5493727;26;20382;-80
2024/04/12 09:45:16;;;;;;;2.83;1.53;;;;;;;21.93;100.00;98906.94;5494905;26;20354;-78
2024/04/12 10:38:02;;;;;;;3.38;2.10;;;;;;;26.24;100.00;98880.00;5504249;26;20358;-81
2024/04/12 10:40:30;;;;;;;3.85;1.92;;;;;;;26.64;100.00;98879.94;5506281;26;20949;-82
2024/04/12 10:42:59;;;;;;;5.43;2.15;;;;;;;26.92;100.00;98878.50;5503989;26;20393;-81
2024/04/12 10:45:29;;;;;;;2.30;1.77;;;;;;;27.29;100.00;98868.84;5499717;26;20378;-82
2024/04/12 10:47:56;;;;;;;5.43;2.33;;;;;;;27.63;100.00;98868.75;5504271;26;20338;-81
2024/04/12 10:50:23;;;;;;;6.72;1.88;;;;;;;27.98;100.00;98861.19;5497903;26;20417;-81
2024/04/12 10:52:51;;;;;;;3.08;2.10;;;;;;;28.25;100.00;98853.69;5505156;26;20800;-81
2024/04/12 10:55:19;;;;;;;3.33;1.73;;;;;;;28.43;100.00;98858.69;5505298;26;20358;-81
2024/04/12 10:57:49;;;;;;;2.90;1.73;;;;;;;28.44;100.00;98854.81;5505485;26;20369;-80
2024/04/12 11:00:27;;;;;;;2.70;1.60;;;;;;;28.39;100.00;98849.59;5505536;26;20318;-81
2024/04/12 11:02:59;;;;;;;2.22;1.55;;;;;;;28.23;100.00;98839.63;5500064;26;20362;-81
2024/04/12 11:05:47;;;;;;;4.60;1.70;;;;;;;28.09;100.00;98840.63;5503616;26;20337;-82
2024/04/12 11:08:13;;;;;;;4.28;2.30;;;;;;;27.79;100.00;98836.34;5486862;26;20374;-81
2024/04/12 11:10:39;;;;;;;10.85;3.88;;;;;;;27.01;100.00;98841.22;5504681;26;20322;-80
2024/04/12 11:13:07;;;;;;;5.50;2.90;;;;;;;26.54;100.00;98846.53;5502222;26;20335;-81
2024/04/12 11:32:05;;;;;;;4.60;2.35;;;;;;;28.28;100.00;98812.97;5502135;26;20341;-80
2024/04/12 11:34:43;;;;;;;8.15;2.42;;;;;;;28.50;100.00;98820.00;5509409;26;20323;-81
2024/04/12 11:37:13;;;;;;;5.68;3.10;;;;;;;28.68;100.00;98826.09;5513747;26;20335;-81
2024/04/12 11:39:41;;;;;;;6.03;3.00;;;;;;;28.85;100.00;98817.78;5504660;26;20412;-81
2024/04/12 11:42:11;;;;;;;4.65;2.10;;;;;;;29.09;100.00;98817.06;5499996;26;20415;-81
2024/04/12 11:44:37;;;;;;;5.65;2.70;;;;;;;29.41;100.00;98813.50;5504167;26;20342;-80
2024/04/12 11:47:06;;;;;;;9.85;4.05;;;;;;;29.42;100.00;98811.56;5500386;26;20400;-81
2024/04/12 11:49:45;;;;;;;7.40;2.97;;;;;;;29.06;100.00;98801.38;5505089;26;20897;-80
2024/04/12 11:52:18;;;;;;;4.65;2.38;;;;;;;28.96;100.00;98799.06;5492709;26;20373;-78
2024/04/12 11:54:51;;;;;;;8.82;4.40;;;;;;;29.25;100.00;98801.63;5506161;26;20326;-80
2024/04/12 11:57:19;;;;;;;5.13;2.78;;;;;;;28.99;100.00;98799.19;5509902;26;20330;-80
2024/04/12 11:59:46;;;;;;;5.50;2.88;;;;;;;28.99;100.00;98790.22;5509141;26;20330;-81
2024/04/12 12:02:18;;;;;;;3.30;1.70;;;;;;;29.14;100.00;98790.38;5501164;26;20362;-81
2024/04/12 12:04:45;;;;;;;5.00;2.30;;;;;;;29.47;100.00;98800.44;5502303;26;20407;-80
2024/04/12 12:07:12;;;;;;;2.33;1.67;;;;;;;29.85;100.00;98798.13;5505079;26;20426;-80
2024/04/12 12:09:38;;;;;;;8.55;4.45;;;;;;;29.74;100.00;98783.34;5506277;26;20315;-79
2024/04/12 12:12:10;;;;;;;5.68;2.20;;;;;;;29.96;100.00;98779.38;5502897;26;20361;-82
2024/04/12 12:14:37;;;;;;;2.23;1.40;;;;;;;30.27;100.00;98779.50;5497248;26;20920;-81
2024/04/12 12:17:06;;;;;;;1.73;1.33;;;;;;;30.69;100.00;98774.47;5503431;26;20358;-81
2024/04/12 12:19:36;;;;;;;4.40;1.95;;;;;;;30.99;100.00;98771.31;5500894;26;20366;-80
2024/04/12 12:22:02;;;;;;;4.18;1.88;;;;;;;31.35;100.00;98773.06;5502789;26;20731;-82
2024/04/12 12:24:29;;;;;;;2.50;1.58;;;;;;;31.75;100.00;98764.63;5500301;26;20330;-82
2024/04/12 12:26:56;;;;;;;4.00;1.42;;;;;;;32.13;100.00;98761.13;5494325;26;20330;-82
2024/04/12 12:29:22;;;;;;;5.78;2.90;;;;;;;32.17;100.00;98757.38;5492524;26;20341;-81
2024/04/12 12:31:48;;;;;;;12.85;4.72;;;;;;;32.41;87.96;98750.78;5490450;26;20322;-79
2024/04/12 12:34:14;;;;;;;3.15;2.03;;;;;;;32.09;100.00;98754.81;5497761;26;20338;-80
2024/04/12 12:36:46;;;;;;;2.67;1.58;;;;;;;32.13;100.00;98753.72;5497111;26;20708;-81
2024/04/12 12:39:12;;;;;;;3.35;1.85;;;;;;;32.38;100.00;98761.69;5498001;26;20322;-82
2024/04/12 12:41:45;;;;;;;3.30;1.77;;;;;;;32.71;100.00;98763.91;5500174;26;20362;-82
2024/04/12 12:44:15;;;;;;;4.82;2.40;;;;;;;32.59;100.00;98760.16;5498542;26;20322;-81
2024/04/12 12:46:45;;;;;;;10.45;4.25;;;;;;;32.43;100.00;98750.41;5498973;26;20939;-79
2024/04/12 12:49:11;;;;;;;2.50;1.60;;;;;;;32.66;100.00;98757.53;5498144;26;20362;-79
2024/04/12 12:51:40;;;;;;;4.30;2.33;;;;;;;32.83;100.00;98750.03;5510072;26;20409;-79
2024/04/12 12:54:09;;;;;;;4.93;1.77;;;;;;;32.83;100.00;98752.78;5510249;25;20389;-80
2024/04/12 12:56:35;;;;;;;4.73;2.43;;;;;;;32.84;100.00;98754.34;5507066;26;20423;-80